createdAt,value
2023-05-23T00:00:50.684Z,15
2023-05-23T00:01:57.619Z,17
2023-05-23T00:03:04.611Z,18
2023-05-23T00:04:11.440Z,17
2023-05-23T00:05:18.274Z,17
2023-05-23T00:06:25.098Z,15
2023-05-23T00:07:31.972Z,15
2023-05-23T00:08:38.781Z,16
2023-05-23T00:09:45.660Z,14
2023-05-23T00:10:52.612Z,16
2023-05-23T00:11:59.272Z,15
2023-05-23T00:13:06.190Z,18
2023-05-23T00:14:12.917Z,14
2023-05-23T00:15:19.690Z,14
2023-05-23T00:19:09.158Z,14
2023-05-23T00:20:15.911Z,15
2023-05-23T00:21:22.672Z,15
2023-05-23T00:22:34.483Z,15
2023-05-23T00:23:41.328Z,13
2023-05-23T00:24:48.099Z,14
2023-05-23T00:25:55.224Z,14
2023-05-23T00:27:01.940Z,12
2023-05-23T00:28:08.718Z,14
2023-05-23T00:29:15.494Z,14
2023-05-23T00:30:22.300Z,15
2023-05-23T00:31:29.310Z,13
2023-05-23T00:32:36.170Z,14
2023-05-23T00:33:43.066Z,14
2023-05-23T00:34:49.946Z,15
2023-05-23T00:35:56.749Z,13
2023-05-23T00:37:03.739Z,14
2023-05-23T00:38:10.524Z,14
2023-05-23T00:39:17.401Z,14
2023-05-23T00:40:39.331Z,16
2023-05-23T00:41:46.258Z,14
2023-05-23T00:42:53.067Z,16
2023-05-23T00:44:00.816Z,15
2023-05-23T00:45:07.674Z,17
2023-05-23T00:46:14.584Z,14
2023-05-23T00:47:21.350Z,14
2023-05-23T00:48:28.294Z,15
2023-05-23T00:49:35.095Z,15
2023-05-23T00:50:41.927Z,14
2023-05-23T00:51:48.754Z,17
2023-05-23T00:52:55.616Z,16
2023-05-23T00:54:02.403Z,14
2023-05-23T00:55:32.113Z,14
2023-05-23T00:56:38.981Z,15
2023-05-23T00:57:46.034Z,13
2023-05-23T00:58:52.715Z,14
2023-05-23T00:59:59.501Z,15
2023-05-23T01:01:06.490Z,15
2023-05-23T01:02:13.351Z,14
2023-05-23T01:03:20.192Z,14
2023-05-23T01:04:27.252Z,14
2023-05-23T01:05:33.775Z,15
2023-05-23T01:06:40.592Z,15
2023-05-23T01:07:47.439Z,14
2023-05-23T01:08:54.279Z,14
2023-05-23T01:10:01.057Z,15
2023-05-23T01:11:47.738Z,15
2023-05-23T01:13:02.627Z,15
2023-05-23T01:14:17.674Z,13
2023-05-23T01:15:27.201Z,15
2023-05-23T01:16:44.406Z,12
2023-05-23T01:17:56.202Z,14
2023-05-23T01:20:01.538Z,14
2023-05-23T01:21:13.445Z,15
2023-05-23T01:22:20.209Z,14
2023-05-23T01:23:37.367Z,14
2023-05-23T01:24:49.284Z,14
2023-05-23T01:26:01.256Z,16
2023-05-23T01:27:18.370Z,17
2023-05-23T01:28:30.746Z,16
2023-05-23T01:29:40.536Z,15
2023-05-23T01:30:47.447Z,14
2023-05-23T01:31:54.377Z,14
2023-05-23T01:33:01.196Z,15
2023-05-23T01:34:07.981Z,17
2023-05-23T01:35:17.831Z,13
2023-05-23T01:36:24.771Z,13
2023-05-23T01:37:31.654Z,14
2023-05-23T01:38:38.440Z,13
2023-05-23T01:39:45.300Z,14
2023-05-23T01:40:52.306Z,14
2023-05-23T01:41:59.029Z,15
2023-05-23T01:43:05.832Z,14
2023-05-23T01:44:12.749Z,15
2023-05-23T01:45:19.458Z,15
2023-05-23T01:46:26.525Z,14
2023-05-23T01:47:33.286Z,14
2023-05-23T01:48:40.123Z,16
2023-05-23T01:49:53.899Z,14
2023-05-23T01:51:00.958Z,14
2023-05-23T01:52:07.760Z,15
2023-05-23T01:53:14.611Z,13
2023-05-23T01:54:21.402Z,13
2023-05-23T01:55:28.186Z,13
2023-05-23T01:56:34.957Z,15
2023-05-23T01:57:41.715Z,13
2023-05-23T01:58:48.591Z,16
2023-05-23T01:59:55.561Z,13
2023-05-23T02:01:02.216Z,14
2023-05-23T02:02:09.013Z,15
2023-05-23T02:03:15.910Z,12
2023-05-23T02:04:22.683Z,14
2023-05-23T02:05:29.538Z,13
2023-05-23T02:06:36.363Z,12
2023-05-23T02:07:43.170Z,14
2023-05-23T02:08:50.008Z,14
2023-05-23T02:09:56.930Z,14
2023-05-23T02:11:03.770Z,15
2023-05-23T02:12:10.568Z,13
2023-05-23T02:13:17.338Z,15
2023-05-23T02:14:24.318Z,13
2023-05-23T02:15:31.227Z,13
2023-05-23T02:16:37.882Z,13
2023-05-23T02:17:44.678Z,13
2023-05-23T02:18:51.525Z,14
2023-05-23T02:19:58.317Z,12
2023-05-23T02:21:05.163Z,14
2023-05-23T02:22:12.042Z,14
2023-05-23T02:23:18.872Z,16
2023-05-23T02:24:25.684Z,14
2023-05-23T02:25:32.515Z,17
2023-05-23T02:26:39.317Z,13
2023-05-23T02:27:46.086Z,13
2023-05-23T02:28:52.893Z,14
2023-05-23T02:29:59.701Z,15
2023-05-23T02:31:06.705Z,13
2023-05-23T02:32:13.338Z,16
2023-05-23T02:33:21.374Z,14
2023-05-23T02:34:28.205Z,15
2023-05-23T02:35:35.079Z,14
2023-05-23T02:36:42.107Z,15
2023-05-23T02:37:48.941Z,14
2023-05-23T02:38:55.742Z,17
2023-05-23T02:40:02.520Z,13
2023-05-23T02:41:09.744Z,15
2023-05-23T02:42:16.721Z,14
2023-05-23T02:43:23.562Z,17
2023-05-23T02:44:30.403Z,13
2023-05-23T02:45:37.189Z,12
2023-05-23T02:46:44.133Z,12
2023-05-23T02:47:50.935Z,13
2023-05-23T02:48:57.666Z,13
2023-05-23T02:50:04.412Z,12
2023-05-23T02:51:11.300Z,12
2023-05-23T02:52:18.297Z,14
2023-05-23T02:53:25.048Z,14
2023-05-23T02:54:31.989Z,11
2023-05-23T02:58:06.649Z,14
2023-05-23T02:59:13.471Z,13
2023-05-23T03:00:20.268Z,12
2023-05-23T03:01:27.124Z,14
2023-05-23T03:02:34.136Z,13
2023-05-23T03:03:40.909Z,13
2023-05-23T03:04:47.646Z,12
2023-05-23T03:05:54.563Z,13
2023-05-23T03:07:01.508Z,14
2023-05-23T03:08:08.646Z,15
2023-05-23T03:11:52.689Z,18
2023-05-23T03:12:59.773Z,16
2023-05-23T03:14:06.815Z,14
2023-05-23T03:15:14.106Z,14
2023-05-23T03:16:21.207Z,13
2023-05-23T03:17:28.240Z,16
2023-05-23T03:18:35.429Z,12
2023-05-23T03:19:42.302Z,11
2023-05-23T03:20:49.237Z,13
2023-05-23T03:24:46.870Z,14
2023-05-23T03:25:54.052Z,11
2023-05-23T03:27:01.100Z,13
2023-05-23T03:28:08.455Z,13
2023-05-23T03:29:15.594Z,12
2023-05-23T03:30:22.622Z,13
2023-05-23T03:31:29.617Z,16
2023-05-23T03:32:36.645Z,11
2023-05-23T03:33:43.674Z,11
2023-05-23T03:34:50.729Z,13
2023-05-23T03:35:57.728Z,12
2023-05-23T03:37:04.662Z,14
2023-05-23T03:38:11.651Z,14
2023-05-23T03:39:18.724Z,13
2023-05-23T03:40:25.941Z,15
2023-05-23T03:41:33.023Z,16
2023-05-23T03:42:40.033Z,15
2023-05-23T03:43:46.973Z,14
2023-05-23T03:44:54.008Z,17
2023-05-23T03:46:01.106Z,15
2023-05-23T03:47:08.060Z,15
2023-05-23T03:48:15.086Z,14
2023-05-23T03:49:22.241Z,13
2023-05-23T03:50:29.110Z,15
2023-05-23T03:51:36.175Z,14
2023-05-23T03:52:43.307Z,13
2023-05-23T03:53:50.548Z,15
2023-05-23T03:54:57.659Z,15
2023-05-23T03:56:05.652Z,17
2023-05-23T03:57:13.887Z,13
2023-05-23T03:58:21.504Z,14
2023-05-23T03:59:28.612Z,15
2023-05-23T04:00:35.828Z,15
2023-05-23T04:01:42.952Z,14
2023-05-23T04:02:50.021Z,14
2023-05-23T04:03:57.844Z,14
2023-05-23T04:05:05.024Z,14
2023-05-23T04:06:14.255Z,16
2023-05-23T04:07:19.340Z,12
2023-05-23T04:08:26.563Z,15
2023-05-23T04:11:43.571Z,14
2023-05-23T04:12:50.603Z,14
2023-05-23T04:13:57.630Z,15
2023-05-23T04:15:04.675Z,15
2023-05-23T04:16:24.765Z,14
2023-05-23T04:17:32.763Z,17
2023-05-23T04:18:39.952Z,17
2023-05-23T04:19:46.985Z,15
2023-05-23T04:20:54.155Z,15
2023-05-23T04:22:03.047Z,15
2023-05-23T04:23:09.916Z,16
2023-05-23T04:24:16.785Z,15
2023-05-23T04:25:23.675Z,14
2023-05-23T04:26:30.503Z,13
2023-05-23T04:27:39.355Z,15
2023-05-23T04:28:44.256Z,15
2023-05-23T04:29:51.208Z,17
2023-05-23T04:30:58.123Z,15
2023-05-23T04:32:04.870Z,17
2023-05-23T04:34:08.471Z,17
2023-05-23T04:35:15.217Z,18
2023-05-23T04:36:22.132Z,15
2023-05-23T04:37:29.930Z,14
2023-05-23T04:38:59.618Z,14
2023-05-23T04:40:06.604Z,16
2023-05-23T04:41:13.793Z,16
2023-05-23T04:42:20.594Z,18
2023-05-23T04:43:27.415Z,17
2023-05-23T04:44:34.145Z,18
2023-05-23T04:45:41.255Z,17
2023-05-23T04:46:47.941Z,16
2023-05-23T04:47:54.957Z,20
2023-05-23T04:49:01.744Z,18
2023-05-23T04:50:08.535Z,16
2023-05-23T04:51:15.365Z,20
2023-05-23T04:52:22.295Z,18
2023-05-23T04:53:28.971Z,20
2023-05-23T04:54:35.870Z,21
2023-05-23T04:55:42.774Z,21
2023-05-23T04:56:49.558Z,18
2023-05-23T04:57:56.344Z,18
2023-05-23T04:59:03.226Z,19
2023-05-23T05:00:10.050Z,19
2023-05-23T05:01:17.095Z,18
2023-05-23T05:02:23.929Z,22
2023-05-23T05:03:30.823Z,23
2023-05-23T05:04:37.634Z,21
2023-05-23T05:05:44.449Z,20
2023-05-23T05:06:51.237Z,21
2023-05-23T05:08:05.915Z,26
2023-05-23T05:09:12.725Z,21
2023-05-23T05:10:19.536Z,22
2023-05-23T05:11:26.412Z,20
2023-05-23T05:12:33.256Z,24
2023-05-23T05:13:40.112Z,21
2023-05-23T05:14:47.068Z,21
2023-05-23T05:15:53.862Z,25
2023-05-23T05:17:00.671Z,21
2023-05-23T05:18:07.441Z,22
2023-05-23T05:19:14.393Z,23
2023-05-23T05:20:21.196Z,19
2023-05-23T05:23:44.771Z,19
2023-05-23T05:24:51.508Z,19
2023-05-23T05:25:58.345Z,18
2023-05-23T05:27:47.107Z,18
2023-05-23T05:28:54.101Z,21
2023-05-23T05:30:01.014Z,18
2023-05-23T05:31:08.050Z,22
2023-05-23T05:32:14.959Z,21
2023-05-23T05:33:21.693Z,18
2023-05-23T05:34:28.589Z,18
2023-05-23T05:35:35.397Z,17
2023-05-23T05:36:42.156Z,20
2023-05-23T05:37:49.149Z,20
2023-05-23T05:38:56.093Z,18
2023-05-23T05:40:02.698Z,17
2023-05-23T05:41:09.666Z,22
2023-05-23T05:42:16.566Z,21
2023-05-23T05:43:23.420Z,18
2023-05-23T05:44:32.160Z,30
2023-05-23T05:45:40.343Z,28
2023-05-23T05:46:47.155Z,32
2023-05-23T05:47:54.098Z,26
2023-05-23T05:49:00.931Z,25
2023-05-23T05:50:07.800Z,27
2023-05-23T05:51:14.612Z,23
2023-05-23T05:52:21.473Z,21
2023-05-23T05:53:28.470Z,28
2023-05-23T05:55:07.026Z,28
2023-05-23T05:56:16.412Z,29
2023-05-23T05:57:23.398Z,29
2023-05-23T05:58:30.552Z,30
2023-05-23T06:00:08.841Z,32
2023-05-23T06:01:40.920Z,32
2023-05-23T06:02:47.813Z,30
2023-05-23T06:04:04.723Z,30
2023-05-23T06:05:11.335Z,30
2023-05-23T06:09:28.736Z,30
2023-05-23T06:10:35.773Z,30
2023-05-23T06:12:13.622Z,30
2023-05-23T06:13:35.420Z,30
2023-05-23T06:14:57.540Z,27
2023-05-23T06:16:02.609Z,27
2023-05-23T06:17:15.111Z,26
2023-05-23T06:18:21.355Z,28
2023-05-23T06:19:28.197Z,32
2023-05-23T06:20:34.952Z,30
2023-05-23T06:21:41.759Z,34
2023-05-23T06:25:51.190Z,30
2023-05-23T06:26:57.877Z,31
2023-05-23T06:28:04.730Z,34
2023-05-23T06:29:11.503Z,31
2023-05-23T06:30:18.283Z,31
2023-05-23T06:31:25.292Z,27
2023-05-23T06:32:32.139Z,32
2023-05-23T06:33:38.929Z,29
2023-05-23T06:34:45.689Z,29
2023-05-23T06:35:52.412Z,36
2023-05-23T06:36:59.223Z,33
2023-05-23T06:38:06.054Z,31
2023-05-23T06:39:12.945Z,29
2023-05-23T06:40:19.732Z,28
2023-05-23T06:41:26.701Z,27
2023-05-23T06:42:33.440Z,25
2023-05-23T06:43:40.196Z,27
2023-05-23T06:44:46.947Z,26
2023-05-23T06:45:53.754Z,23
2023-05-23T06:47:00.673Z,33
2023-05-23T06:48:07.514Z,30
2023-05-23T06:49:15.326Z,25
2023-05-23T06:50:21.296Z,26
2023-05-23T06:51:28.215Z,22
2023-05-23T06:52:35.115Z,23
2023-05-23T06:54:00.003Z,26
2023-05-23T06:55:07.126Z,23
2023-05-23T06:56:14.047Z,23
2023-05-23T06:57:21.028Z,23
2023-05-23T06:58:27.716Z,24
2023-05-23T06:59:34.560Z,20
2023-05-23T07:00:41.608Z,22
2023-05-23T07:01:48.262Z,27
2023-05-23T07:02:55.091Z,24
2023-05-23T07:04:04.910Z,22
2023-05-23T07:05:11.733Z,21
2023-05-23T07:06:18.542Z,24
2023-05-23T07:07:25.547Z,23
2023-05-23T07:08:32.371Z,20
2023-05-23T07:09:39.153Z,22
2023-05-23T07:10:46.000Z,23
2023-05-23T07:11:52.922Z,31
2023-05-23T07:12:59.949Z,26
2023-05-23T07:14:06.642Z,27
2023-05-23T07:15:13.514Z,23
2023-05-23T07:16:20.400Z,26
2023-05-23T07:17:27.335Z,26
2023-05-23T07:18:36.141Z,24
2023-05-23T07:19:41.188Z,28
2023-05-23T07:20:48.037Z,27
2023-05-23T07:21:54.919Z,23
2023-05-23T07:23:01.850Z,27
2023-05-23T07:24:08.850Z,24
2023-05-23T07:25:15.791Z,22
2023-05-23T07:26:22.551Z,24
2023-05-23T07:27:29.422Z,19
2023-05-23T07:28:36.435Z,20
2023-05-23T07:29:43.148Z,19
2023-05-23T07:31:27.913Z,19
2023-05-23T07:32:34.729Z,18
2023-05-23T07:33:41.569Z,18
2023-05-23T07:34:48.480Z,20
2023-05-23T07:35:55.263Z,22
2023-05-23T07:37:02.126Z,21
2023-05-23T07:38:09.026Z,18
2023-05-23T07:39:15.850Z,20
2023-05-23T07:40:22.706Z,23
2023-05-23T07:41:29.531Z,20
2023-05-23T07:42:36.314Z,21
2023-05-23T07:43:43.163Z,20
2023-05-23T07:44:49.913Z,18
2023-05-23T07:45:56.678Z,20
2023-05-23T07:47:03.571Z,21
2023-05-23T07:48:10.469Z,23
2023-05-23T07:49:17.347Z,20
2023-05-23T07:50:24.173Z,20
2023-05-23T07:51:30.949Z,18
2023-05-23T07:52:37.741Z,18
2023-05-23T07:53:44.776Z,16
2023-05-23T07:54:51.613Z,23
2023-05-23T07:55:58.390Z,18
2023-05-23T07:57:05.293Z,17
2023-05-23T07:58:12.125Z,17
2023-05-23T07:59:19.019Z,20
2023-05-23T08:00:25.812Z,20
2023-05-23T08:01:32.683Z,15
2023-05-23T08:02:39.472Z,16
2023-05-23T08:03:46.518Z,16
2023-05-23T08:04:53.307Z,21
2023-05-23T08:06:00.156Z,18
2023-05-23T08:07:07.011Z,19
2023-05-23T08:08:13.949Z,16
2023-05-23T08:09:20.935Z,17
2023-05-23T08:10:42.902Z,17
2023-05-23T08:11:49.660Z,16
2023-05-23T08:12:56.555Z,16
2023-05-23T08:14:03.451Z,16
2023-05-23T08:15:11.517Z,24
2023-05-23T08:16:23.424Z,17
2023-05-23T08:17:30.536Z,17
2023-05-23T08:18:37.397Z,15
2023-05-23T08:19:44.356Z,19
2023-05-23T08:20:51.121Z,17
2023-05-23T08:21:57.936Z,17
2023-05-23T08:23:04.760Z,17
2023-05-23T08:24:12.778Z,18
2023-05-23T08:25:30.568Z,15
2023-05-23T08:26:37.315Z,16
2023-05-23T08:27:44.190Z,20
2023-05-23T08:28:51.095Z,18
2023-05-23T08:29:57.964Z,17
2023-05-23T08:31:04.837Z,14
2023-05-23T08:32:11.690Z,17
2023-05-23T08:33:18.548Z,17
2023-05-23T08:34:25.319Z,17
2023-05-23T08:35:32.081Z,14
2023-05-23T08:36:38.860Z,16
2023-05-23T08:37:45.670Z,17
2023-05-23T08:38:52.565Z,21
2023-05-23T08:39:59.399Z,17
2023-05-23T08:41:06.396Z,17
2023-05-23T08:42:13.303Z,16
2023-05-23T08:43:20.195Z,19
2023-05-23T08:44:26.960Z,16
2023-05-23T08:45:33.899Z,16
2023-05-23T08:46:40.685Z,16
2023-05-23T08:47:47.672Z,15
2023-05-23T08:48:54.340Z,15
2023-05-23T08:50:01.175Z,15
2023-05-23T08:51:08.056Z,14
2023-05-23T08:52:14.901Z,16
2023-05-23T08:53:21.837Z,15
2023-05-23T08:54:28.644Z,14
2023-05-23T08:55:35.402Z,15
2023-05-23T08:56:42.170Z,13
2023-05-23T08:57:49.364Z,13
2023-05-23T08:58:56.409Z,15
2023-05-23T09:00:18.380Z,14
2023-05-23T09:01:25.269Z,12
2023-05-23T09:02:32.753Z,13
2023-05-23T09:03:38.933Z,13
2023-05-23T09:04:45.789Z,12
2023-05-23T09:05:52.828Z,13
2023-05-23T09:06:59.711Z,14
2023-05-23T09:08:08.667Z,13
2023-05-23T09:09:15.450Z,12
2023-05-23T09:10:22.249Z,13
2023-05-23T09:11:29.214Z,13
2023-05-23T09:12:38.982Z,16
2023-05-23T09:13:45.730Z,12
2023-05-23T09:14:52.644Z,10
2023-05-23T09:15:59.520Z,12
2023-05-23T09:17:19.217Z,12
2023-05-23T09:18:26.325Z,12
2023-05-23T09:19:38.362Z,14
2023-05-23T09:20:45.109Z,13
2023-05-23T09:21:51.989Z,11
2023-05-23T09:22:59.147Z,15
2023-05-23T09:24:05.761Z,11
2023-05-23T09:25:12.676Z,11
2023-05-23T09:26:19.488Z,12
2023-05-23T09:27:26.285Z,9
2023-05-23T09:28:33.116Z,11
2023-05-23T09:29:39.949Z,9
2023-05-23T09:30:46.778Z,15
2023-05-23T09:31:53.640Z,10
2023-05-23T09:33:05.340Z,12
2023-05-23T09:34:10.041Z,9
2023-05-23T09:35:17.077Z,10
2023-05-23T09:36:24.128Z,13
2023-05-23T09:37:30.937Z,14
2023-05-23T09:38:37.768Z,12
2023-05-23T09:39:44.595Z,10
2023-05-23T09:40:51.438Z,10
2023-05-23T09:41:58.278Z,12
2023-05-23T09:43:05.112Z,10
2023-05-23T09:44:11.966Z,9
2023-05-23T09:47:30.595Z,9
2023-05-23T09:48:37.470Z,8
2023-05-23T09:49:49.356Z,9
2023-05-23T09:50:56.166Z,9
2023-05-23T09:52:03.005Z,13
2023-05-23T09:53:09.827Z,10
2023-05-23T09:54:16.830Z,10
2023-05-23T09:55:23.666Z,9
2023-05-23T09:56:30.494Z,9
2023-05-23T09:57:37.353Z,10
2023-05-23T09:58:44.322Z,12
2023-05-23T09:59:51.187Z,9
2023-05-23T10:00:57.980Z,12
2023-05-23T10:02:07.874Z,9
2023-05-23T10:03:14.912Z,14
2023-05-23T10:04:21.743Z,11
2023-05-23T10:05:28.496Z,10
2023-05-23T10:06:37.895Z,12
2023-05-23T10:07:44.697Z,11
2023-05-23T10:08:51.534Z,12
2023-05-23T10:10:03.502Z,10
2023-05-23T10:11:10.454Z,10
2023-05-23T10:12:17.212Z,9
2023-05-23T10:13:34.493Z,9
2023-05-23T10:14:41.353Z,11
2023-05-23T10:15:48.159Z,11
2023-05-23T10:16:55.218Z,11
2023-05-23T10:18:01.987Z,10
2023-05-23T10:19:09.006Z,10
2023-05-23T10:20:26.167Z,8
2023-05-23T10:21:33.008Z,10
2023-05-23T10:22:39.821Z,11
2023-05-23T10:23:46.643Z,10
2023-05-23T10:24:53.397Z,9
2023-05-23T10:26:00.232Z,11
2023-05-23T10:27:07.034Z,12
2023-05-23T10:28:13.854Z,13
2023-05-23T10:29:20.653Z,12
2023-05-23T10:30:27.545Z,10
2023-05-23T10:32:04.370Z,10
2023-05-23T10:33:11.193Z,13
2023-05-23T10:34:18.156Z,13
2023-05-23T10:35:24.895Z,9
2023-05-23T10:36:37.038Z,9
2023-05-23T10:37:43.758Z,11
2023-05-23T10:38:55.809Z,12
2023-05-23T10:40:05.477Z,12
2023-05-23T10:41:20.349Z,9
2023-05-23T10:42:47.336Z,11
2023-05-23T10:44:02.408Z,14
2023-05-23T10:45:14.688Z,12
2023-05-23T10:46:21.746Z,10
2023-05-23T10:47:28.509Z,13
2023-05-23T10:48:35.312Z,11
2023-05-23T10:49:44.873Z,10
2023-05-23T10:51:24.498Z,10
2023-05-23T10:52:31.304Z,12
2023-05-23T10:53:38.147Z,12
2023-05-23T10:54:45.039Z,12
2023-05-23T10:55:54.682Z,9
2023-05-23T10:57:01.528Z,12
2023-05-23T10:58:08.558Z,8
2023-05-23T10:59:18.299Z,10
2023-05-23T11:00:25.087Z,11
2023-05-23T11:01:31.989Z,9
2023-05-23T11:02:38.719Z,10
2023-05-23T11:03:56.317Z,13
2023-05-23T11:05:02.708Z,11
2023-05-23T11:06:19.890Z,9
2023-05-23T11:07:31.921Z,11
2023-05-23T11:08:46.676Z,14
2023-05-23T11:09:45.724Z,10
2023-05-23T11:11:03.034Z,13
2023-05-23T11:12:09.867Z,11
2023-05-23T11:13:16.673Z,11
2023-05-23T11:14:23.474Z,10
2023-05-23T11:15:35.435Z,10
2023-05-23T11:16:44.928Z,13
2023-05-23T11:17:51.695Z,10
2023-05-23T11:18:58.786Z,10
2023-05-23T11:20:16.104Z,13
2023-05-23T11:21:28.084Z,10
2023-05-23T11:22:34.921Z,10
2023-05-23T11:23:41.792Z,11
2023-05-23T11:24:48.596Z,9
2023-05-23T11:25:58.437Z,12
2023-05-23T11:27:05.232Z,10
2023-05-23T11:28:12.194Z,12
2023-05-23T11:29:19.609Z,12
2023-05-23T11:30:26.514Z,13
2023-05-23T11:31:33.574Z,10
2023-05-23T11:32:40.637Z,11
2023-05-23T11:33:52.687Z,11
2023-05-23T11:34:59.461Z,11
2023-05-23T11:36:06.301Z,13
2023-05-23T11:37:13.093Z,20
2023-05-23T11:38:19.865Z,22
2023-05-23T11:39:26.993Z,23
2023-05-23T11:40:33.741Z,21
2023-05-23T11:41:40.735Z,19
2023-05-23T11:42:47.550Z,16
2023-05-23T11:43:54.385Z,16
2023-05-23T11:45:01.299Z,12
2023-05-23T11:46:08.543Z,17
2023-05-23T11:47:15.297Z,17
2023-05-23T11:48:22.272Z,15
2023-05-23T11:49:31.102Z,14
2023-05-23T11:50:38.192Z,13
2023-05-23T11:51:52.958Z,13
2023-05-23T11:52:59.817Z,15
2023-05-23T11:54:06.636Z,14
2023-05-23T11:55:13.516Z,14
2023-05-23T11:56:20.362Z,10
2023-05-23T11:57:27.170Z,16
2023-05-23T11:58:34.031Z,12
2023-05-23T11:59:41.001Z,15
2023-05-23T12:00:47.795Z,14
2023-05-23T12:01:54.605Z,13
2023-05-23T12:03:06.573Z,13
2023-05-23T12:04:13.447Z,13
2023-05-23T12:05:20.166Z,12
2023-05-23T12:06:26.981Z,12
2023-05-23T12:07:33.836Z,13
2023-05-23T12:08:48.830Z,13
2023-05-23T12:09:55.967Z,12
2023-05-23T12:11:02.807Z,12
2023-05-23T12:12:09.559Z,10
2023-05-23T12:13:16.405Z,11
2023-05-23T12:14:55.117Z,11
2023-05-23T12:16:02.453Z,11
2023-05-23T12:17:09.343Z,10
2023-05-23T12:18:16.177Z,9
2023-05-23T12:19:23.009Z,8
2023-05-23T12:20:29.808Z,9
2023-05-23T12:21:36.771Z,10
2023-05-23T12:22:46.785Z,9
2023-05-23T12:23:53.648Z,8
2023-05-23T12:25:00.476Z,8
2023-05-23T12:26:07.841Z,9
2023-05-23T12:27:14.336Z,12
2023-05-23T12:28:21.345Z,10
2023-05-23T12:29:38.534Z,11
2023-05-23T12:30:45.442Z,7
2023-05-23T12:31:52.273Z,9
2023-05-23T12:32:59.128Z,10
2023-05-23T12:34:05.906Z,8
2023-05-23T12:35:12.723Z,10
2023-05-23T12:36:19.509Z,9
2023-05-23T12:37:29.128Z,8
2023-05-23T12:38:36.006Z,9
2023-05-23T12:39:42.993Z,8
2023-05-23T12:40:49.779Z,7
2023-05-23T12:42:07.071Z,9
2023-05-23T12:43:13.994Z,8
2023-05-23T12:44:20.745Z,8
2023-05-23T12:45:27.503Z,7
2023-05-23T12:46:45.355Z,9
2023-05-23T12:47:54.079Z,7
2023-05-23T12:48:58.962Z,10
2023-05-23T12:50:05.799Z,7
2023-05-23T12:51:12.740Z,7
2023-05-23T12:52:19.582Z,8
2023-05-23T12:53:26.408Z,8
2023-05-23T12:54:33.199Z,9
2023-05-23T12:55:40.104Z,8
2023-05-23T12:56:47.070Z,8
2023-05-23T12:57:53.936Z,7
2023-05-23T12:59:00.759Z,8
2023-05-23T13:00:30.111Z,8
2023-05-23T13:01:37.058Z,6
2023-05-23T13:02:43.856Z,7
2023-05-23T13:03:50.831Z,7
2023-05-23T13:04:57.636Z,6
2023-05-23T13:06:04.576Z,6
2023-05-23T13:07:11.535Z,6
2023-05-23T13:08:18.382Z,7
2023-05-23T13:09:25.319Z,9
2023-05-23T13:10:32.467Z,7
2023-05-23T13:11:39.050Z,7
2023-05-23T13:12:45.876Z,8
2023-05-23T13:13:52.740Z,8
2023-05-23T13:14:59.653Z,6
2023-05-23T13:16:06.733Z,7
2023-05-23T13:17:13.810Z,8
2023-05-23T13:18:20.559Z,7
2023-05-23T13:19:27.561Z,6
2023-05-23T13:20:34.527Z,7
2023-05-23T13:21:41.604Z,5
2023-05-23T13:22:56.306Z,7
2023-05-23T13:24:03.274Z,7
2023-05-23T13:25:10.330Z,8
2023-05-23T13:26:17.175Z,7
2023-05-23T13:27:24.137Z,6
2023-05-23T13:28:31.125Z,5
2023-05-23T13:29:38.067Z,6
2023-05-23T13:30:47.128Z,6
2023-05-23T13:31:51.954Z,5
2023-05-23T13:32:59.270Z,6
2023-05-23T13:34:06.134Z,7
2023-05-23T13:35:12.927Z,7
2023-05-23T13:36:20.121Z,7
2023-05-23T13:37:26.997Z,6
2023-05-23T13:38:33.890Z,7
2023-05-23T13:39:40.690Z,8
2023-05-23T13:40:49.263Z,8
2023-05-23T13:41:54.493Z,7
2023-05-23T13:43:01.471Z,8
2023-05-23T13:44:08.288Z,7
2023-05-23T13:45:15.142Z,8
2023-05-23T13:46:21.972Z,9
2023-05-23T13:47:28.821Z,8
2023-05-23T13:48:35.731Z,7
2023-05-23T13:49:42.514Z,7
2023-05-23T13:50:49.326Z,6
2023-05-23T13:51:56.287Z,7
2023-05-23T13:53:03.121Z,6
2023-05-23T13:54:09.875Z,6
2023-05-23T13:55:16.649Z,6
2023-05-23T13:56:23.524Z,7
2023-05-23T13:57:30.432Z,8
2023-05-23T13:58:37.232Z,8
2023-05-23T13:59:44.143Z,8
2023-05-23T14:00:51.352Z,7
2023-05-23T14:01:58.222Z,6
2023-05-23T14:03:05.231Z,7
2023-05-23T14:04:11.990Z,6
2023-05-23T14:05:18.767Z,8
2023-05-23T14:06:25.517Z,6
2023-05-23T14:07:32.582Z,7
2023-05-23T14:08:39.388Z,7
2023-05-23T14:09:46.215Z,6
2023-05-23T14:10:53.098Z,6
2023-05-23T14:11:59.923Z,7
2023-05-23T14:13:06.984Z,6
2023-05-23T14:14:13.897Z,7
2023-05-23T14:15:20.914Z,8
2023-05-23T14:16:27.881Z,7
2023-05-23T14:17:34.670Z,6
2023-05-23T14:18:41.745Z,5
2023-05-23T14:19:48.846Z,6
2023-05-23T14:20:55.548Z,7
2023-05-23T14:22:02.417Z,6
2023-05-23T14:23:09.279Z,8
2023-05-23T14:24:16.288Z,7
2023-05-23T14:25:23.162Z,7
2023-05-23T14:26:29.993Z,8
2023-05-23T14:27:36.857Z,10
2023-05-23T14:28:43.743Z,8
2023-05-23T14:29:50.748Z,6
2023-05-23T14:30:57.589Z,7
2023-05-23T14:32:04.521Z,7
2023-05-23T14:33:11.487Z,6
2023-05-23T14:34:18.223Z,7
2023-05-23T14:35:25.218Z,7
2023-05-23T14:36:32.163Z,6
2023-05-23T14:37:38.996Z,6
2023-05-23T14:38:45.863Z,8
2023-05-23T14:39:52.784Z,7
2023-05-23T14:40:59.721Z,9
2023-05-23T14:42:06.583Z,7
2023-05-23T14:43:13.473Z,7
2023-05-23T14:44:20.344Z,8
2023-05-23T14:45:32.229Z,7
2023-05-23T14:46:41.338Z,6
2023-05-23T14:47:48.146Z,7
2023-05-23T14:48:56.235Z,8
2023-05-23T14:50:03.236Z,7
2023-05-23T14:51:11.276Z,7
2023-05-23T14:52:17.372Z,9
2023-05-23T14:53:24.272Z,9
2023-05-23T14:54:31.063Z,8
2023-05-23T14:55:37.822Z,6
2023-05-23T14:56:44.641Z,6
2023-05-23T14:57:51.465Z,8
2023-05-23T14:58:58.338Z,10
2023-05-23T15:00:06.326Z,7
2023-05-23T15:01:13.955Z,10
2023-05-23T15:02:20.938Z,11
2023-05-23T15:03:28.490Z,9
2023-05-23T15:04:35.469Z,10
2023-05-23T15:05:43.010Z,10
2023-05-23T15:06:51.703Z,11
2023-05-23T15:08:01.140Z,10
2023-05-23T15:09:10.894Z,8
2023-05-23T15:10:22.243Z,13
2023-05-23T15:11:34.681Z,10
2023-05-23T15:12:49.365Z,10
2023-05-23T15:14:04.205Z,12
2023-05-23T15:15:17.121Z,10
2023-05-23T15:16:26.885Z,11
2023-05-23T15:17:38.519Z,9
2023-05-23T15:18:47.961Z,10
2023-05-23T15:19:57.437Z,11
2023-05-23T15:21:05.769Z,10
2023-05-23T15:22:22.505Z,9
2023-05-23T15:23:19.519Z,9
2023-05-23T15:24:29.333Z,8
2023-05-23T15:25:48.460Z,9
2023-05-23T15:26:43.821Z,9
2023-05-23T15:27:50.574Z,8
2023-05-23T15:29:06.287Z,7
2023-05-23T15:30:16.299Z,8
2023-05-23T15:31:28.623Z,9
2023-05-23T15:32:38.264Z,7
2023-05-23T15:33:47.449Z,9
2023-05-23T15:34:55.286Z,9
2023-05-23T15:36:02.261Z,10
2023-05-23T15:37:09.299Z,10
2023-05-23T15:38:18.461Z,11
2023-05-23T15:39:23.319Z,8
2023-05-23T15:40:30.240Z,11
2023-05-23T15:41:37.115Z,10
2023-05-23T15:42:43.975Z,11
2023-05-23T15:43:50.848Z,10
2023-05-23T15:44:57.634Z,11
2023-05-23T15:46:04.476Z,10
2023-05-23T15:47:11.412Z,10
2023-05-23T15:48:18.275Z,10
2023-05-23T15:49:26.772Z,9
2023-05-23T15:50:34.950Z,12
2023-05-23T15:51:45.372Z,10
2023-05-23T15:52:52.325Z,7
2023-05-23T15:54:00.947Z,8
2023-05-23T15:55:09.227Z,9
2023-05-23T15:56:18.843Z,9
2023-05-23T15:57:31.435Z,8
2023-05-23T15:58:38.222Z,11
2023-05-23T15:59:48.173Z,11
2023-05-23T16:00:58.060Z,9
2023-05-23T16:02:09.851Z,9
2023-05-23T16:03:19.686Z,11
2023-05-23T16:04:26.540Z,12
2023-05-23T16:05:39.454Z,11
2023-05-23T16:06:49.031Z,9
2023-05-23T16:07:55.821Z,11
2023-05-23T16:09:02.823Z,9
2023-05-23T16:10:09.916Z,10
2023-05-23T16:11:20.108Z,9
2023-05-23T16:12:33.337Z,9
2023-05-23T16:13:48.015Z,10
2023-05-23T16:14:55.776Z,10
2023-05-23T16:16:06.248Z,9
2023-05-23T16:17:13.243Z,10
2023-05-23T16:18:21.212Z,9
2023-05-23T16:19:29.944Z,10
2023-05-23T16:20:36.786Z,9
2023-05-23T16:21:43.673Z,10
2023-05-23T16:22:51.198Z,8
2023-05-23T16:23:58.824Z,8
2023-05-23T16:25:05.639Z,9
2023-05-23T16:26:13.180Z,9
2023-05-23T16:27:20.124Z,8
2023-05-23T16:28:27.466Z,9
2023-05-23T16:29:37.673Z,10
2023-05-23T16:30:44.497Z,9
2023-05-23T16:31:51.419Z,9
2023-05-23T16:32:58.193Z,9
2023-05-23T16:34:05.326Z,8
2023-05-23T16:35:12.531Z,9
2023-05-23T16:36:19.923Z,8
2023-05-23T16:37:26.941Z,8
2023-05-23T16:38:45.599Z,8
2023-05-23T16:39:52.429Z,8
2023-05-23T16:40:59.269Z,9
2023-05-23T16:42:06.948Z,7
2023-05-23T16:43:14.315Z,7
2023-05-23T16:44:24.173Z,8
2023-05-23T16:45:31.105Z,8
2023-05-23T16:46:37.820Z,7